createdAt,value
2017-12-30T00:02:20.207Z,5.70
2017-12-30T00:04:47.799Z,6.05
2017-12-30T00:07:15.386Z,6.80
2017-12-30T00:09:42.970Z,5.57
2017-12-30T00:12:11.331Z,5.97
2017-12-30T00:14:38.933Z,5.35
2017-12-30T00:17:06.510Z,6.45
2017-12-30T00:19:34.090Z,5.60
2017-12-30T00:22:01.684Z,5.35
2017-12-30T00:24:30.031Z,6.40
2017-12-30T00:26:57.614Z,5.55
2017-12-30T00:29:30.571Z,5.90
2017-12-30T00:31:58.176Z,5.25
2017-12-30T00:34:25.767Z,5.72
2017-12-30T00:36:53.359Z,5.90
2017-12-30T00:39:20.946Z,5.32
2017-12-30T00:41:49.326Z,5.78
2017-12-30T00:44:17.696Z,6.12
2017-12-30T00:46:46.122Z,6.37
2017-12-30T00:49:13.707Z,5.85
2017-12-30T00:51:41.298Z,6.30
2017-12-30T00:54:09.657Z,5.82
2017-12-30T00:56:37.241Z,6.65
2017-12-30T00:59:04.898Z,5.62
2017-12-30T01:01:33.259Z,6.10
2017-12-30T01:04:01.678Z,6.85
2017-12-30T01:06:29.266Z,6.70
2017-12-30T01:08:56.858Z,5.40
2017-12-30T01:11:24.439Z,5.70
2017-12-30T01:13:52.785Z,4.90
2017-12-30T01:16:20.367Z,4.87
2017-12-30T01:18:48.726Z,5.07
2017-12-30T01:21:16.317Z,4.97
2017-12-30T01:23:43.907Z,5.07
2017-12-30T01:26:11.517Z,4.90
2017-12-30T01:28:39.867Z,4.47
2017-12-30T01:31:07.450Z,4.95
2017-12-30T01:33:35.810Z,5.47
2017-12-30T01:36:03.448Z,5.10
2017-12-30T01:38:31.025Z,5.62
2017-12-30T01:40:58.670Z,6.15
2017-12-30T01:43:26.262Z,5.87
2017-12-30T01:45:53.883Z,6.22
2017-12-30T01:48:21.475Z,6.45
2017-12-30T01:50:49.066Z,5.93
2017-12-30T01:53:16.671Z,6.18
2017-12-30T01:55:44.318Z,6.53
2017-12-30T01:58:11.907Z,7.53
2017-12-30T02:00:39.504Z,5.90
2017-12-30T02:03:07.088Z,5.95
2017-12-30T02:05:34.682Z,6.62
2017-12-30T02:08:02.298Z,6.30
2017-12-30T02:10:29.902Z,6.60
2017-12-30T02:12:57.497Z,6.62
2017-12-30T02:15:25.099Z,5.80
2017-12-30T02:17:52.695Z,6.05
2017-12-30T02:20:20.298Z,5.85
2017-12-30T02:22:47.886Z,5.62
2017-12-30T02:25:15.479Z,5.68
2017-12-30T02:27:43.854Z,4.75
2017-12-30T02:30:11.464Z,6.00
2017-12-30T02:32:39.094Z,5.05
2017-12-30T02:35:06.690Z,4.93
2017-12-30T02:37:34.275Z,5.20
2017-12-30T02:40:01.912Z,5.80
2017-12-30T02:42:29.502Z,5.32
2017-12-30T02:44:57.090Z,5.43
2017-12-30T02:47:25.451Z,5.50
2017-12-30T02:49:53.812Z,4.57
2017-12-30T02:52:21.414Z,4.10
2017-12-30T02:54:49.016Z,4.40
2017-12-30T02:57:16.602Z,5.65
2017-12-30T02:59:44.962Z,5.50
2017-12-30T03:02:12.556Z,4.85
2017-12-30T03:04:40.918Z,4.93
2017-12-30T03:07:08.507Z,5.70
2017-12-30T03:09:36.092Z,5.18
2017-12-30T03:12:03.688Z,5.03
2017-12-30T03:14:31.276Z,5.25
2017-12-30T03:16:58.870Z,4.93
2017-12-30T03:19:26.455Z,5.45
2017-12-30T03:21:54.046Z,5.25
2017-12-30T03:24:22.406Z,5.62
2017-12-30T03:26:49.993Z,4.80
2017-12-30T03:29:17.580Z,4.55
2017-12-30T03:31:45.163Z,4.97
2017-12-30T03:34:12.760Z,5.60
2017-12-30T03:36:41.131Z,5.40
2017-12-30T03:39:09.490Z,5.50
2017-12-30T03:41:37.099Z,6.00
2017-12-30T03:44:04.698Z,4.78
2017-12-30T03:46:32.318Z,5.07
2017-12-30T03:48:59.950Z,5.50
2017-12-30T03:51:28.314Z,5.30
2017-12-30T03:53:55.910Z,5.75
2017-12-30T03:56:23.526Z,5.70
2017-12-30T03:58:51.130Z,5.80
2017-12-30T04:01:18.723Z,5.85
2017-12-30T04:03:46.311Z,5.95
2017-12-30T04:06:13.926Z,6.00
2017-12-30T04:08:41.526Z,4.85
2017-12-30T04:11:09.126Z,6.15
2017-12-30T04:13:36.704Z,5.75
2017-12-30T04:16:04.286Z,5.68
2017-12-30T04:18:31.866Z,5.53
2017-12-30T04:20:59.459Z,6.75
2017-12-30T04:23:27.050Z,6.22
2017-12-30T04:25:54.642Z,5.80
2017-12-30T04:28:22.230Z,5.40
2017-12-30T04:30:50.630Z,5.82
2017-12-30T04:33:18.226Z,6.00
2017-12-30T04:35:47.946Z,5.80
2017-12-30T04:38:15.534Z,5.05
2017-12-30T04:40:43.894Z,4.45
2017-12-30T04:43:11.498Z,5.25
2017-12-30T04:45:39.082Z,5.20
2017-12-30T04:48:06.683Z,4.68
2017-12-30T04:50:34.274Z,5.05
2017-12-30T04:53:01.854Z,4.57
2017-12-30T04:55:29.467Z,3.20
2017-12-30T04:57:57.846Z,4.30
2017-12-30T05:00:25.459Z,4.82
2017-12-30T05:02:53.181Z,4.05
2017-12-30T05:05:20.771Z,4.22
2017-12-30T05:07:48.350Z,4.12
2017-12-30T05:10:15.939Z,3.75
2017-12-30T05:12:44.294Z,3.90
2017-12-30T05:15:11.923Z,4.53
2017-12-30T05:17:39.515Z,4.57
2017-12-30T05:20:07.109Z,3.87
2017-12-30T05:22:34.701Z,4.30
2017-12-30T05:25:02.303Z,4.70
2017-12-30T05:27:29.895Z,5.20
2017-12-30T05:29:57.486Z,4.70
2017-12-30T05:32:25.078Z,5.53
2017-12-30T05:34:52.710Z,4.53
2017-12-30T05:37:20.314Z,5.78
2017-12-30T05:39:48.666Z,4.93
2017-12-30T05:42:16.255Z,5.62
2017-12-30T05:44:44.606Z,5.53
2017-12-30T05:47:12.198Z,5.28
2017-12-30T05:49:40.542Z,6.05
2017-12-30T05:52:08.319Z,6.03
2017-12-30T05:54:35.918Z,5.85
2017-12-30T05:57:03.545Z,6.75
2017-12-30T05:59:31.930Z,6.35
2017-12-30T06:02:00.341Z,6.25
2017-12-30T06:04:27.930Z,6.30
2017-12-30T06:06:55.550Z,5.97
2017-12-30T06:09:23.136Z,6.65
2017-12-30T06:11:50.770Z,6.65
2017-12-30T06:14:18.368Z,6.22
2017-12-30T06:16:45.961Z,5.70
2017-12-30T06:19:14.314Z,5.82
2017-12-30T06:21:41.908Z,6.03
2017-12-30T06:24:09.550Z,6.78
2017-12-30T06:26:37.916Z,6.03
2017-12-30T06:29:05.522Z,6.00
2017-12-30T06:31:33.118Z,5.32
2017-12-30T06:34:00.710Z,5.40
2017-12-30T06:36:29.070Z,6.30
2017-12-30T06:38:56.669Z,6.45
2017-12-30T06:41:24.270Z,6.20
2017-12-30T06:43:51.875Z,5.55
2017-12-30T06:46:19.478Z,7.05
2017-12-30T06:48:47.074Z,6.68
2017-12-30T06:51:14.650Z,6.90
2017-12-30T06:53:43.345Z,6.72
2017-12-30T06:56:11.695Z,6.80
2017-12-30T06:58:39.293Z,5.32
2017-12-30T07:01:06.884Z,6.25
2017-12-30T07:03:34.534Z,6.43
2017-12-30T07:06:02.125Z,5.85
2017-12-30T07:08:29.730Z,6.28
2017-12-30T07:10:57.324Z,6.10
2017-12-30T07:13:24.919Z,6.57
2017-12-30T07:15:52.501Z,6.22
2017-12-30T07:18:20.854Z,7.12
2017-12-30T07:20:48.446Z,7.70
2017-12-30T07:23:16.073Z,5.85
2017-12-30T07:25:43.672Z,6.10
2017-12-30T07:28:11.261Z,7.10
2017-12-30T07:30:38.846Z,6.72
2017-12-30T07:33:06.467Z,7.12
2017-12-30T07:35:34.050Z,7.25
2017-12-30T07:38:01.633Z,7.28
2017-12-30T07:40:29.222Z,6.82
2017-12-30T07:43:20.949Z,6.90
2017-12-30T07:45:48.562Z,6.90
2017-12-30T07:48:16.163Z,6.75
2017-12-30T07:50:44.518Z,8.68
2017-12-30T07:53:12.110Z,7.45
2017-12-30T07:55:42.043Z,7.82
2017-12-30T07:58:09.661Z,7.10
2017-12-30T08:00:39.150Z,7.05
2017-12-30T08:03:06.754Z,7.20
2017-12-30T08:05:34.339Z,6.68
2017-12-30T08:08:01.939Z,6.87
2017-12-30T08:10:29.518Z,6.80
2017-12-30T08:12:57.894Z,6.57
2017-12-30T08:15:26.246Z,6.40
2017-12-30T08:17:54.496Z,7.32
2017-12-30T08:20:22.892Z,6.93
2017-12-30T08:22:50.481Z,7.47
2017-12-30T08:25:18.839Z,7.05
2017-12-30T08:27:46.447Z,7.35
2017-12-30T08:30:14.040Z,7.45
2017-12-30T08:32:41.765Z,7.40
2017-12-30T08:35:09.446Z,6.97
2017-12-30T08:37:37.034Z,7.00
2017-12-30T08:40:04.626Z,6.43
2017-12-30T08:42:32.210Z,6.80
2017-12-30T08:44:59.804Z,6.75
2017-12-30T08:47:27.451Z,8.02
2017-12-30T08:49:55.045Z,7.55
2017-12-30T08:52:22.632Z,6.80
2017-12-30T08:54:50.991Z,6.90
2017-12-30T08:57:18.578Z,7.22
2017-12-30T08:59:46.942Z,6.62
2017-12-30T09:02:14.529Z,8.18
2017-12-30T09:04:42.900Z,6.55
2017-12-30T09:07:11.275Z,8.00
2017-12-30T09:09:39.634Z,6.97
2017-12-30T09:12:07.708Z,9.00
2017-12-30T09:14:35.330Z,8.10
2017-12-30T09:17:02.915Z,5.95
2017-12-30T09:19:30.507Z,5.03
2017-12-30T09:21:58.104Z,7.55
2017-12-30T09:24:25.698Z,7.50
2017-12-30T09:26:53.315Z,7.43
2017-12-30T09:29:20.962Z,7.68
2017-12-30T09:31:49.317Z,7.15
2017-12-30T09:34:16.907Z,8.52
2017-12-30T09:36:45.261Z,8.02
2017-12-30T09:39:12.846Z,8.20
2017-12-30T09:41:41.205Z,8.20
2017-12-30T09:44:09.350Z,7.55
2017-12-30T09:46:36.998Z,9.23
2017-12-30T09:49:04.594Z,8.18
2017-12-30T09:51:32.183Z,8.50
2017-12-30T09:53:59.777Z,7.85
2017-12-30T09:56:27.877Z,7.65
2017-12-30T09:58:56.346Z,8.20
2017-12-30T10:01:24.703Z,7.75
2017-12-30T10:03:52.289Z,8.27
2017-12-30T10:06:20.646Z,7.32
2017-12-30T10:08:48.246Z,7.65
2017-12-30T10:11:15.830Z,7.57
2017-12-30T10:13:43.416Z,7.53
2017-12-30T10:16:11.062Z,8.27
2017-12-30T10:18:38.646Z,6.97
2017-12-30T10:21:06.245Z,6.80
2017-12-30T10:23:33.838Z,5.90
2017-12-30T10:26:01.418Z,6.43
2017-12-30T10:28:28.998Z,6.30
2017-12-30T10:30:56.583Z,6.80
2017-12-30T10:33:24.928Z,7.12
2017-12-30T10:35:52.507Z,7.93
2017-12-30T10:38:20.091Z,7.30
2017-12-30T10:40:47.674Z,6.93
2017-12-30T10:43:15.668Z,6.68
2017-12-30T10:45:45.383Z,6.60
2017-12-30T10:48:12.965Z,7.32
2017-12-30T10:50:40.594Z,7.97
2017-12-30T10:53:08.188Z,7.32
2017-12-30T10:55:36.542Z,7.40
2017-12-30T10:58:04.157Z,6.60
2017-12-30T11:00:37.411Z,6.55
2017-12-30T11:03:04.987Z,6.62
2017-12-30T11:05:33.372Z,6.25
2017-12-30T11:08:00.953Z,7.50
2017-12-30T11:10:28.550Z,7.45
2017-12-30T11:12:56.163Z,8.23
2017-12-30T11:15:23.746Z,6.75
2017-12-30T11:17:51.335Z,8.32
2017-12-30T11:20:18.919Z,7.20
2017-12-30T11:22:47.271Z,7.37
2017-12-30T11:25:14.858Z,7.20
2017-12-30T11:27:43.202Z,6.32
2017-12-30T11:30:10.782Z,7.40
2017-12-30T11:32:38.362Z,6.65
2017-12-30T11:35:06.006Z,8.32
2017-12-30T11:37:34.358Z,7.05
2017-12-30T11:40:01.942Z,8.05
2017-12-30T11:42:30.302Z,8.30
2017-12-30T11:44:57.895Z,8.30
2017-12-30T11:47:26.242Z,8.05
2017-12-30T11:49:53.818Z,7.87
2017-12-30T11:52:21.406Z,8.02
2017-12-30T11:54:48.990Z,8.88
2017-12-30T11:57:16.581Z,7.75
2017-12-30T11:59:44.178Z,8.40
2017-12-30T12:02:11.769Z,8.45
2017-12-30T12:04:39.396Z,8.25
2017-12-30T12:07:06.981Z,8.60
2017-12-30T12:09:34.627Z,9.55
2017-12-30T12:12:02.223Z,8.80
2017-12-30T12:14:29.841Z,9.27
2017-12-30T12:16:57.493Z,9.98
2017-12-30T12:19:25.074Z,7.97
2017-12-30T12:21:52.666Z,8.70
2017-12-30T12:24:20.284Z,8.27
2017-12-30T12:26:47.875Z,7.87
2017-12-30T12:29:15.502Z,7.72
2017-12-30T12:31:43.110Z,8.10
2017-12-30T12:34:10.694Z,7.80
2017-12-30T12:36:38.282Z,7.78
2017-12-30T12:39:06.658Z,8.20
2017-12-30T12:41:35.037Z,8.43
2017-12-30T12:44:03.393Z,8.30
2017-12-30T12:46:30.981Z,8.15
2017-12-30T12:48:59.325Z,9.18
2017-12-30T12:51:26.906Z,8.27
2017-12-30T12:53:54.490Z,8.95
2017-12-30T12:56:22.114Z,7.40
2017-12-30T12:58:49.698Z,8.50
2017-12-30T13:01:18.094Z,7.43
2017-12-30T13:03:45.683Z,8.40
2017-12-30T13:06:13.278Z,8.00
2017-12-30T13:08:40.897Z,8.73
2017-12-30T13:11:08.545Z,8.60
2017-12-30T13:13:36.125Z,8.50
2017-12-30T13:16:03.703Z,8.05
2017-12-30T13:18:31.285Z,7.35
2017-12-30T13:20:58.878Z,8.70
2017-12-30T13:23:26.466Z,8.07
2017-12-30T13:25:54.045Z,7.90
2017-12-30T13:28:21.626Z,7.25
2017-12-30T13:30:49.211Z,6.85
2017-12-30T13:33:16.791Z,7.75
2017-12-30T13:35:44.382Z,7.70
2017-12-30T13:38:11.958Z,7.70
2017-12-30T13:40:39.546Z,7.40
2017-12-30T13:43:07.157Z,6.68
2017-12-30T13:45:34.738Z,6.47
2017-12-30T13:48:02.319Z,7.00
2017-12-30T13:50:30.671Z,5.90
2017-12-30T13:52:59.046Z,5.60
2017-12-30T13:55:26.622Z,6.75
2017-12-30T13:57:54.251Z,6.30
2017-12-30T14:00:21.835Z,5.82
2017-12-30T14:02:49.428Z,6.93
2017-12-30T14:05:17.008Z,6.95
2017-12-30T14:07:44.585Z,7.55
2017-12-30T14:10:12.185Z,8.07
2017-12-30T14:12:40.542Z,8.05
2017-12-30T14:15:08.129Z,8.95
2017-12-30T14:20:53.955Z,9.23
2017-12-30T14:23:21.530Z,8.23
2017-12-30T14:25:49.153Z,11.20
2017-12-30T14:28:17.502Z,10.45
2017-12-30T14:30:45.082Z,9.45
2017-12-30T14:33:13.434Z,10.20
2017-12-30T14:35:41.014Z,10.15
2017-12-30T14:38:08.594Z,9.15
2017-12-30T14:40:36.213Z,9.95
2017-12-30T14:43:03.796Z,9.20
2017-12-30T14:45:32.314Z,7.60
2017-12-30T14:47:59.932Z,8.90
2017-12-30T14:50:27.530Z,10.05
2017-12-30T14:52:55.136Z,9.35
2017-12-30T14:55:22.718Z,9.55
2017-12-30T14:57:51.070Z,8.90
2017-12-30T15:00:18.675Z,10.50
2017-12-30T15:02:47.026Z,9.25
2017-12-30T15:05:14.619Z,8.52
2017-12-30T15:07:42.213Z,7.95
2017-12-30T15:10:09.802Z,8.27
2017-12-30T15:12:37.387Z,7.53
2017-12-30T15:15:05.739Z,8.63
2017-12-30T15:17:33.326Z,8.77
2017-12-30T15:20:00.923Z,8.10
2017-12-30T15:22:28.509Z,7.72
2017-12-30T15:24:57.910Z,7.40
2017-12-30T15:27:25.531Z,6.55
2017-12-30T15:29:53.887Z,6.35
2017-12-30T15:32:21.588Z,6.40
2017-12-30T15:34:50.274Z,5.45
2017-12-30T15:37:18.657Z,4.93
2017-12-30T15:39:47.006Z,4.15
2017-12-30T15:42:14.585Z,4.90
2017-12-30T15:44:42.162Z,4.05
2017-12-30T15:47:10.506Z,4.00
2017-12-30T15:49:38.099Z,4.40
2017-12-30T15:52:07.078Z,4.45
2017-12-30T15:54:35.429Z,4.28
2017-12-30T15:57:03.007Z,3.55
2017-12-30T15:59:30.592Z,3.05
2017-12-30T16:01:59.138Z,2.95
2017-12-30T16:04:26.710Z,3.00
2017-12-30T16:06:54.318Z,2.95
2017-12-30T16:09:21.942Z,2.62
2017-12-30T16:11:50.287Z,2.55
2017-12-30T16:14:19.322Z,2.62
2017-12-30T16:16:47.697Z,3.70
2017-12-30T16:19:16.050Z,3.00
2017-12-30T16:21:43.631Z,2.35
2017-12-30T16:24:11.989Z,2.90
2017-12-30T16:26:39.566Z,2.42
2017-12-30T16:29:07.916Z,2.50
2017-12-30T16:31:35.498Z,2.00
2017-12-30T16:34:03.850Z,2.08
2017-12-30T16:36:31.437Z,2.12
2017-12-30T16:38:59.794Z,1.95
2017-12-30T16:41:27.369Z,1.80
2017-12-30T16:43:54.955Z,2.17
2017-12-30T16:46:22.534Z,2.10
2017-12-30T16:48:50.111Z,2.00
2017-12-30T16:51:17.687Z,2.22
2017-12-30T16:53:45.262Z,2.05
2017-12-30T16:56:12.842Z,2.00
2017-12-30T16:58:41.184Z,1.80
2017-12-30T17:01:22.806Z,1.65
2017-12-30T17:03:51.150Z,1.83
2017-12-30T17:06:18.727Z,1.73
2017-12-30T17:08:46.306Z,2.10
2017-12-30T17:11:14.648Z,1.95
2017-12-30T17:13:42.234Z,1.70
2017-12-30T17:16:10.581Z,1.60
2017-12-30T17:18:38.225Z,1.62
2017-12-30T17:21:05.810Z,1.75
2017-12-30T17:23:33.398Z,1.80
2017-12-30T17:26:01.745Z,2.15
2017-12-30T17:28:29.330Z,2.40
2017-12-30T17:30:57.670Z,2.08
2017-12-30T17:33:25.250Z,2.35
2017-12-30T17:35:52.826Z,1.80
2017-12-30T17:38:21.182Z,2.55
2017-12-30T17:40:48.766Z,2.17
2017-12-30T17:43:16.352Z,3.20
2017-12-30T17:45:43.929Z,2.70
2017-12-30T17:48:11.506Z,3.55
2017-12-30T17:50:39.122Z,3.85
2017-12-30T17:53:06.698Z,4.30
2017-12-30T17:55:34.270Z,5.05
2017-12-30T17:58:01.846Z,5.18
2017-12-30T18:00:29.422Z,5.03
2017-12-30T18:02:57.806Z,4.47
2017-12-30T18:05:26.151Z,4.57
2017-12-30T18:07:53.728Z,4.55
2017-12-30T18:10:21.306Z,4.80
2017-12-30T18:12:49.657Z,4.93
2017-12-30T18:15:17.246Z,5.82
2017-12-30T18:17:45.589Z,7.78
2017-12-30T18:20:13.170Z,7.72
2017-12-30T18:22:41.522Z,6.72
2017-12-30T18:25:09.110Z,6.50
2017-12-30T18:27:37.476Z,6.72
2017-12-30T18:30:05.058Z,6.82
2017-12-30T18:32:33.410Z,6.47
2017-12-30T18:35:00.994Z,6.65
2017-12-30T18:37:29.362Z,7.12
2017-12-30T18:39:57.718Z,7.12
2017-12-30T18:42:25.319Z,8.48
2017-12-30T18:44:52.907Z,7.93
2017-12-30T18:47:20.495Z,7.20
2017-12-30T18:49:48.106Z,8.05
2017-12-30T18:52:15.689Z,8.85
2017-12-30T18:54:43.332Z,8.98
2017-12-30T18:57:10.931Z,9.07
2017-12-30T18:59:45.078Z,8.20
2017-12-30T19:02:12.666Z,8.38
2017-12-30T19:04:40.266Z,9.65
2017-12-30T19:07:07.852Z,9.13
2017-12-30T19:09:36.271Z,9.15
2017-12-30T19:12:03.906Z,9.20
2017-12-30T19:14:31.499Z,11.52
2017-12-30T19:16:59.143Z,10.88
2017-12-30T19:19:26.731Z,10.23
2017-12-30T19:21:54.310Z,9.23
2017-12-30T19:24:21.902Z,9.57
2017-12-30T19:26:49.526Z,9.70
2017-12-30T19:29:17.123Z,9.70
2017-12-30T19:31:44.701Z,9.25
2017-12-30T19:34:13.075Z,9.00
2017-12-30T19:36:41.427Z,9.32
2017-12-30T19:39:09.016Z,8.60
2017-12-30T19:41:37.367Z,9.45
2017-12-30T19:44:04.949Z,9.20
2017-12-30T19:46:33.290Z,8.93
2017-12-30T19:49:00.928Z,8.85
2017-12-30T19:51:28.562Z,10.00
2017-12-30T19:53:56.150Z,9.40
2017-12-30T19:56:23.749Z,9.43
2017-12-30T19:58:52.106Z,10.48
2017-12-30T20:01:19.686Z,9.82
2017-12-30T20:03:48.054Z,8.35
2017-12-30T20:06:15.640Z,9.15
2017-12-30T20:08:43.995Z,9.90
2017-12-30T20:11:11.582Z,9.38
2017-12-30T20:13:39.177Z,9.80
2017-12-30T20:16:06.758Z,9.90
2017-12-30T20:18:34.438Z,8.85
2017-12-30T20:21:02.022Z,10.02
2017-12-30T20:23:29.671Z,9.38
2017-12-30T20:25:58.014Z,9.82
2017-12-30T20:28:25.595Z,9.20
2017-12-30T20:30:53.177Z,10.63
2017-12-30T20:33:21.520Z,9.88
2017-12-30T20:35:49.109Z,9.88
2017-12-30T20:38:17.458Z,10.52
2017-12-30T20:40:45.040Z,9.50
2017-12-30T20:43:13.382Z,11.23
2017-12-30T20:45:40.969Z,10.63
2017-12-30T20:48:09.326Z,10.40
2017-12-30T20:50:36.923Z,10.93
2017-12-30T20:53:04.531Z,10.70
2017-12-30T20:55:32.131Z,10.60
2017-12-30T20:57:59.763Z,12.23
2017-12-30T21:00:27.346Z,10.75
2017-12-30T21:02:54.946Z,10.80
2017-12-30T21:05:22.526Z,12.20
2017-12-30T21:07:50.117Z,11.68
2017-12-30T21:10:17.711Z,11.65
2017-12-30T21:12:45.302Z,12.98
2017-12-30T21:15:13.663Z,11.48
2017-12-30T21:17:42.026Z,11.30
2017-12-30T21:20:09.606Z,11.55
2017-12-30T21:22:37.230Z,11.55
2017-12-30T21:25:04.884Z,10.80
2017-12-30T21:27:32.531Z,10.18
2017-12-30T21:30:00.264Z,10.38
2017-12-30T21:32:28.614Z,11.88
2017-12-30T21:34:56.199Z,10.75
2017-12-30T21:37:24.555Z,10.90
2017-12-30T21:39:52.138Z,10.80
2017-12-30T21:42:20.529Z,11.10
2017-12-30T21:44:48.878Z,11.20
2017-12-30T21:47:16.466Z,11.23
2017-12-30T21:49:44.858Z,10.90
2017-12-30T21:52:12.451Z,10.27
2017-12-30T21:54:40.033Z,10.38
2017-12-30T21:57:07.626Z,10.73
2017-12-30T21:59:35.217Z,10.90
2017-12-30T22:02:02.803Z,9.43
2017-12-30T22:04:30.391Z,10.82
2017-12-30T22:06:57.994Z,11.10
2017-12-30T22:09:25.576Z,9.93
2017-12-30T22:11:53.162Z,10.38
2017-12-30T22:14:21.510Z,10.48
2017-12-30T22:16:49.107Z,10.13
2017-12-30T22:19:18.197Z,9.95
2017-12-30T22:21:46.552Z,10.68
2017-12-30T22:24:14.153Z,11.23
2017-12-30T22:26:41.745Z,10.25
2017-12-30T22:29:09.340Z,11.18
2017-12-30T22:31:36.929Z,10.20
2017-12-30T22:34:04.522Z,11.35
2017-12-30T22:36:32.110Z,11.48
2017-12-30T22:38:59.718Z,10.68
2017-12-30T22:41:27.298Z,10.57
2017-12-30T22:43:54.882Z,10.48
2017-12-30T22:46:22.485Z,10.40
2017-12-30T22:48:50.078Z,10.65
2017-12-30T22:51:17.666Z,10.45
2017-12-30T22:53:45.255Z,10.73
2017-12-30T22:56:13.609Z,10.85
2017-12-30T22:58:41.196Z,10.15
2017-12-30T23:01:08.783Z,9.68
2017-12-30T23:03:36.477Z,11.15
2017-12-30T23:06:04.094Z,10.50
2017-12-30T23:08:31.689Z,10.80
2017-12-30T23:10:59.286Z,11.02
2017-12-30T23:13:27.634Z,10.57
2017-12-30T23:15:55.217Z,10.93
2017-12-30T23:18:23.579Z,10.85
2017-12-30T23:20:51.161Z,12.02
2017-12-30T23:23:19.515Z,11.98
2017-12-30T23:25:47.122Z,11.52
2017-12-30T23:28:14.717Z,12.35
2017-12-30T23:30:42.314Z,12.23
2017-12-30T23:33:10.667Z,12.90
2017-12-30T23:35:38.314Z,12.25
2017-12-30T23:38:05.899Z,11.55
2017-12-30T23:40:34.381Z,12.25
2017-12-30T23:43:01.975Z,13.73
2017-12-30T23:45:29.590Z,12.32
2017-12-30T23:47:57.186Z,12.02
2017-12-30T23:50:24.778Z,13.68
2017-12-30T23:52:52.361Z,13.45
2017-12-30T23:55:19.970Z,14.38
2017-12-30T23:57:47.570Z,12.55
